sensor_id;sensor_type;location;lat;lon;timestamp;P1;durP1;ratioP1;P2;durP2;ratioP2
48897;SDS011;34713;50.038;20.000;2022-11-27T00:01:18;24.32;;;14.93;;
48897;SDS011;34713;50.038;20.000;2022-11-27T00:03:47;25.92;;;14.33;;
48897;SDS011;34713;50.038;20.000;2022-11-27T00:06:14;22.73;;;13.40;;
48897;SDS011;34713;50.038;20.000;2022-11-27T00:08:42;20.05;;;11.85;;
48897;SDS011;34713;50.038;20.000;2022-11-27T00:11:10;21.60;;;12.07;;
48897;SDS011;34713;50.038;20.000;2022-11-27T00:13:40;22.15;;;12.85;;
48897;SDS011;34713;50.038;20.000;2022-11-27T00:16:06;20.57;;;12.68;;
48897;SDS011;34713;50.038;20.000;2022-11-27T00:18:32;23.55;;;12.50;;
48897;SDS011;34713;50.038;20.000;2022-11-27T00:21:03;23.25;;;13.32;;
48897;SDS011;34713;50.038;20.000;2022-11-27T00:23:31;22.05;;;13.03;;
48897;SDS011;34713;50.038;20.000;2022-11-27T00:25:59;20.08;;;12.43;;
48897;SDS011;34713;50.038;20.000;2022-11-27T00:28:24;19.48;;;12.03;;
48897;SDS011;34713;50.038;20.000;2022-11-27T00:30:50;20.10;;;11.83;;
48897;SDS011;34713;50.038;20.000;2022-11-27T00:33:16;21.12;;;11.40;;
48897;SDS011;34713;50.038;20.000;2022-11-27T00:35:42;21.52;;;12.30;;
48897;SDS011;34713;50.038;20.000;2022-11-27T00:38:08;21.37;;;13.20;;
48897;SDS011;34713;50.038;20.000;2022-11-27T00:40:34;19.87;;;12.00;;
48897;SDS011;34713;50.038;20.000;2022-11-27T00:42:59;20.10;;;12.47;;
48897;SDS011;34713;50.038;20.000;2022-11-27T00:45:26;24.25;;;12.68;;
48897;SDS011;34713;50.038;20.000;2022-11-27T00:47:52;20.70;;;12.30;;
48897;SDS011;34713;50.038;20.000;2022-11-27T00:50:18;20.75;;;12.53;;
48897;SDS011;34713;50.038;20.000;2022-11-27T00:52:44;22.80;;;13.62;;
48897;SDS011;34713;50.038;20.000;2022-11-27T00:55:10;18.85;;;12.28;;
48897;SDS011;34713;50.038;20.000;2022-11-27T00:57:36;22.67;;;14.03;;
48897;SDS011;34713;50.038;20.000;2022-11-27T01:00:03;23.38;;;13.00;;
48897;SDS011;34713;50.038;20.000;2022-11-27T01:02:31;24.82;;;12.40;;
48897;SDS011;34713;50.038;20.000;2022-11-27T01:04:57;21.77;;;13.25;;
48897;SDS011;34713;50.038;20.000;2022-11-27T01:07:24;20.95;;;12.65;;
48897;SDS011;34713;50.038;20.000;2022-11-27T01:09:51;21.77;;;12.80;;
48897;SDS011;34713;50.038;20.000;2022-11-27T01:12:16;24.32;;;13.85;;
48897;SDS011;34713;50.038;20.000;2022-11-27T01:14:42;26.23;;;14.33;;
48897;SDS011;34713;50.038;20.000;2022-11-27T01:17:08;22.10;;;13.75;;
48897;SDS011;34713;50.038;20.000;2022-11-27T01:19:33;21.68;;;13.13;;
48897;SDS011;34713;50.038;20.000;2022-11-27T01:21:59;24.05;;;13.22;;
48897;SDS011;34713;50.038;20.000;2022-11-27T01:24:25;24.25;;;13.78;;
48897;SDS011;34713;50.038;20.000;2022-11-27T01:26:51;22.42;;;13.48;;
48897;SDS011;34713;50.038;20.000;2022-11-27T01:29:16;23.30;;;12.82;;
48897;SDS011;34713;50.038;20.000;2022-11-27T01:31:42;20.27;;;12.55;;
48897;SDS011;34713;50.038;20.000;2022-11-27T01:34:11;20.27;;;11.70;;
48897;SDS011;34713;50.038;20.000;2022-11-27T01:36:41;20.75;;;12.85;;
48897;SDS011;34713;50.038;20.000;2022-11-27T01:39:08;20.68;;;12.40;;
48897;SDS011;34713;50.038;20.000;2022-11-27T01:41:41;22.67;;;14.27;;
48897;SDS011;34713;50.038;20.000;2022-11-27T01:47:01;21.52;;;12.47;;
48897;SDS011;34713;50.038;20.000;2022-11-27T01:49:34;19.32;;;11.65;;
48897;SDS011;34713;50.038;20.000;2022-11-27T01:54:37;17.82;;;10.20;;
48897;SDS011;34713;50.038;20.000;2022-11-27T01:57:09;17.23;;;10.38;;
48897;SDS011;34713;50.038;20.000;2022-11-27T01:59:41;16.32;;;10.13;;
48897;SDS011;34713;50.038;20.000;2022-11-27T02:02:09;17.20;;;10.50;;
48897;SDS011;34713;50.038;20.000;2022-11-27T02:04:35;16.90;;;9.78;;
48897;SDS011;34713;50.038;20.000;2022-11-27T02:07:00;21.05;;;10.88;;
48897;SDS011;34713;50.038;20.000;2022-11-27T02:09:27;19.55;;;11.43;;
48897;SDS011;34713;50.038;20.000;2022-11-27T02:11:57;20.72;;;11.18;;
48897;SDS011;34713;50.038;20.000;2022-11-27T02:14:48;18.17;;;10.68;;
48897;SDS011;34713;50.038;20.000;2022-11-27T02:20:15;17.05;;;10.55;;
48897;SDS011;34713;50.038;20.000;2022-11-27T02:26:23;17.70;;;11.40;;
48897;SDS011;34713;50.038;20.000;2022-11-27T02:29:27;15.48;;;10.10;;
48897;SDS011;34713;50.038;20.000;2022-11-27T02:34:41;18.73;;;11.08;;
48897;SDS011;34713;50.038;20.000;2022-11-27T02:42:42;19.57;;;10.53;;
48897;SDS011;34713;50.038;20.000;2022-11-27T02:45:22;18.00;;;10.72;;
48897;SDS011;34713;50.038;20.000;2022-11-27T02:47:52;15.45;;;9.53;;
48897;SDS011;34713;50.038;20.000;2022-11-27T02:50:20;14.90;;;9.80;;
48897;SDS011;34713;50.038;20.000;2022-11-27T02:52:50;17.07;;;9.28;;
48897;SDS011;34713;50.038;20.000;2022-11-27T02:55:21;13.60;;;8.28;;
48897;SDS011;34713;50.038;20.000;2022-11-27T02:57:51;13.68;;;8.95;;
48897;SDS011;34713;50.038;20.000;2022-11-27T03:00:19;14.75;;;8.90;;
48897;SDS011;34713;50.038;20.000;2022-11-27T03:02:46;15.45;;;8.30;;
48897;SDS011;34713;50.038;20.000;2022-11-27T03:05:17;14.00;;;8.58;;
48897;SDS011;34713;50.038;20.000;2022-11-27T03:07:51;12.82;;;8.03;;
48897;SDS011;34713;50.038;20.000;2022-11-27T03:10:26;16.57;;;9.50;;
48897;SDS011;34713;50.038;20.000;2022-11-27T03:12:54;15.30;;;8.98;;
48897;SDS011;34713;50.038;20.000;2022-11-27T03:15:20;14.30;;;8.50;;
48897;SDS011;34713;50.038;20.000;2022-11-27T03:20:31;15.13;;;8.78;;
48897;SDS011;34713;50.038;20.000;2022-11-27T03:23:02;18.50;;;10.35;;
48897;SDS011;34713;50.038;20.000;2022-11-27T03:25:27;16.82;;;9.83;;
48897;SDS011;34713;50.038;20.000;2022-11-27T03:28:00;17.45;;;10.48;;
48897;SDS011;34713;50.038;20.000;2022-11-27T03:30:30;17.40;;;9.83;;
48897;SDS011;34713;50.038;20.000;2022-11-27T03:32:56;17.45;;;10.23;;
48897;SDS011;34713;50.038;20.000;2022-11-27T03:35:23;17.40;;;10.43;;
48897;SDS011;34713;50.038;20.000;2022-11-27T03:37:51;18.35;;;10.32;;
48897;SDS011;34713;50.038;20.000;2022-11-27T03:40:18;18.07;;;10.55;;
48897;SDS011;34713;50.038;20.000;2022-11-27T03:53:45;16.60;;;9.53;;
48897;SDS011;34713;50.038;20.000;2022-11-27T03:56:42;17.10;;;10.45;;
48897;SDS011;34713;50.038;20.000;2022-11-27T03:59:27;17.73;;;10.93;;
48897;SDS011;34713;50.038;20.000;2022-11-27T04:01:56;18.10;;;11.28;;
48897;SDS011;34713;50.038;20.000;2022-11-27T04:04:22;18.67;;;11.45;;
48897;SDS011;34713;50.038;20.000;2022-11-27T04:06:48;18.42;;;11.22;;
48897;SDS011;34713;50.038;20.000;2022-11-27T04:09:14;21.33;;;12.28;;
48897;SDS011;34713;50.038;20.000;2022-11-27T04:11:40;20.20;;;12.13;;
48897;SDS011;34713;50.038;20.000;2022-11-27T04:14:05;19.40;;;12.45;;
48897;SDS011;34713;50.038;20.000;2022-11-27T04:16:31;19.65;;;12.18;;
48897;SDS011;34713;50.038;20.000;2022-11-27T04:18:57;17.65;;;11.68;;
48897;SDS011;34713;50.038;20.000;2022-11-27T04:21:23;21.90;;;12.68;;
48897;SDS011;34713;50.038;20.000;2022-11-27T04:23:49;21.52;;;11.90;;
48897;SDS011;34713;50.038;20.000;2022-11-27T04:26:14;20.82;;;12.13;;
48897;SDS011;34713;50.038;20.000;2022-11-27T04:28:40;21.15;;;13.22;;
48897;SDS011;34713;50.038;20.000;2022-11-27T04:31:06;20.30;;;12.68;;
48897;SDS011;34713;50.038;20.000;2022-11-27T04:33:32;21.00;;;11.53;;
48897;SDS011;34713;50.038;20.000;2022-11-27T04:35:58;22.98;;;12.82;;
48897;SDS011;34713;50.038;20.000;2022-11-27T04:38:24;22.05;;;13.20;;
48897;SDS011;34713;50.038;20.000;2022-11-27T04:40:50;21.80;;;12.55;;
48897;SDS011;34713;50.038;20.000;2022-11-27T04:43:17;22.02;;;13.13;;
48897;SDS011;34713;50.038;20.000;2022-11-27T04:45:44;20.85;;;12.88;;
48897;SDS011;34713;50.038;20.000;2022-11-27T04:48:10;21.60;;;13.28;;
48897;SDS011;34713;50.038;20.000;2022-11-27T04:50:35;21.05;;;13.22;;
48897;SDS011;34713;50.038;20.000;2022-11-27T04:53:01;24.98;;;13.05;;
48897;SDS011;34713;50.038;20.000;2022-11-27T04:55:27;22.52;;;12.82;;
48897;SDS011;34713;50.038;20.000;2022-11-27T04:57:53;22.58;;;13.25;;
48897;SDS011;34713;50.038;20.000;2022-11-27T05:00:19;24.23;;;13.68;;
48897;SDS011;34713;50.038;20.000;2022-11-27T05:02:46;21.40;;;12.75;;
48897;SDS011;34713;50.038;20.000;2022-11-27T05:05:12;23.18;;;13.68;;
48897;SDS011;34713;50.038;20.000;2022-11-27T05:07:37;22.30;;;13.00;;
48897;SDS011;34713;50.038;20.000;2022-11-27T05:10:04;22.15;;;13.18;;
48897;SDS011;34713;50.038;20.000;2022-11-27T05:12:31;22.42;;;12.68;;
48897;SDS011;34713;50.038;20.000;2022-11-27T05:14:57;20.60;;;12.55;;
48897;SDS011;34713;50.038;20.000;2022-11-27T05:17:22;21.65;;;13.30;;
48897;SDS011;34713;50.038;20.000;2022-11-27T05:19:48;21.55;;;12.40;;
48897;SDS011;34713;50.038;20.000;2022-11-27T05:22:14;23.12;;;13.03;;
48897;SDS011;34713;50.038;20.000;2022-11-27T05:24:40;20.92;;;12.20;;
48897;SDS011;34713;50.038;20.000;2022-11-27T05:27:05;21.23;;;12.58;;
48897;SDS011;34713;50.038;20.000;2022-11-27T05:29:31;22.05;;;13.13;;
48897;SDS011;34713;50.038;20.000;2022-11-27T05:31:57;22.25;;;12.35;;
48897;SDS011;34713;50.038;20.000;2022-11-27T05:34:22;20.68;;;13.50;;
48897;SDS011;34713;50.038;20.000;2022-11-27T05:36:48;24.72;;;13.38;;
48897;SDS011;34713;50.038;20.000;2022-11-27T05:39:14;22.73;;;13.03;;
48897;SDS011;34713;50.038;20.000;2022-11-27T05:41:41;23.38;;;12.60;;
48897;SDS011;34713;50.038;20.000;2022-11-27T05:44:11;22.70;;;12.35;;
48897;SDS011;34713;50.038;20.000;2022-11-27T05:46:39;21.52;;;12.68;;
48897;SDS011;34713;50.038;20.000;2022-11-27T05:49:09;20.17;;;12.18;;
48897;SDS011;34713;50.038;20.000;2022-11-27T05:51:37;22.65;;;13.13;;
48897;SDS011;34713;50.038;20.000;2022-11-27T05:54:03;22.95;;;13.38;;
48897;SDS011;34713;50.038;20.000;2022-11-27T05:56:29;19.02;;;12.40;;
48897;SDS011;34713;50.038;20.000;2022-11-27T05:58:55;24.10;;;13.15;;
48897;SDS011;34713;50.038;20.000;2022-11-27T06:01:20;21.10;;;12.85;;
48897;SDS011;34713;50.038;20.000;2022-11-27T06:03:46;20.40;;;11.97;;
48897;SDS011;34713;50.038;20.000;2022-11-27T06:06:13;20.80;;;12.35;;
48897;SDS011;34713;50.038;20.000;2022-11-27T06:08:42;22.52;;;12.35;;
48897;SDS011;34713;50.038;20.000;2022-11-27T06:11:10;20.60;;;11.63;;
48897;SDS011;34713;50.038;20.000;2022-11-27T06:13:40;20.77;;;12.60;;
48897;SDS011;34713;50.038;20.000;2022-11-27T06:16:07;18.92;;;11.95;;
48897;SDS011;34713;50.038;20.000;2022-11-27T06:18:42;18.45;;;11.90;;
48897;SDS011;34713;50.038;20.000;2022-11-27T06:21:09;21.30;;;12.70;;
48897;SDS011;34713;50.038;20.000;2022-11-27T06:23:39;19.15;;;12.23;;
48897;SDS011;34713;50.038;20.000;2022-11-27T06:26:10;18.98;;;11.45;;
48897;SDS011;34713;50.038;20.000;2022-11-27T06:28:42;22.45;;;12.85;;
48897;SDS011;34713;50.038;20.000;2022-11-27T06:31:10;20.08;;;12.18;;
48897;SDS011;34713;50.038;20.000;2022-11-27T06:33:39;21.37;;;11.80;;
48897;SDS011;34713;50.038;20.000;2022-11-27T06:36:05;18.95;;;12.45;;
48897;SDS011;34713;50.038;20.000;2022-11-27T06:38:32;23.32;;;12.53;;
48897;SDS011;34713;50.038;20.000;2022-11-27T06:41:01;20.55;;;12.43;;
48897;SDS011;34713;50.038;20.000;2022-11-27T06:43:33;18.45;;;11.75;;
48897;SDS011;34713;50.038;20.000;2022-11-27T06:46:00;20.20;;;12.33;;
48897;SDS011;34713;50.038;20.000;2022-11-27T06:48:27;19.80;;;12.18;;
48897;SDS011;34713;50.038;20.000;2022-11-27T06:50:53;22.90;;;12.50;;
48897;SDS011;34713;50.038;20.000;2022-11-27T06:53:19;22.73;;;13.48;;
48897;SDS011;34713;50.038;20.000;2022-11-27T06:55:45;22.48;;;12.53;;
48897;SDS011;34713;50.038;20.000;2022-11-27T06:58:10;22.17;;;13.00;;
48897;SDS011;34713;50.038;20.000;2022-11-27T07:00:36;24.82;;;14.73;;
48897;SDS011;34713;50.038;20.000;2022-11-27T07:03:02;29.87;;;15.40;;
48897;SDS011;34713;50.038;20.000;2022-11-27T07:05:28;25.95;;;15.70;;
48897;SDS011;34713;50.038;20.000;2022-11-27T07:07:54;27.95;;;16.60;;
48897;SDS011;34713;50.038;20.000;2022-11-27T07:10:21;25.57;;;16.02;;
48897;SDS011;34713;50.038;20.000;2022-11-27T07:12:46;29.02;;;16.70;;
48897;SDS011;34713;50.038;20.000;2022-11-27T07:15:12;29.57;;;17.75;;
48897;SDS011;34713;50.038;20.000;2022-11-27T07:17:38;29.23;;;19.07;;
48897;SDS011;34713;50.038;20.000;2022-11-27T07:20:06;32.42;;;18.32;;
48897;SDS011;34713;50.038;20.000;2022-11-27T07:22:32;30.77;;;16.87;;
48897;SDS011;34713;50.038;20.000;2022-11-27T07:24:58;27.10;;;17.45;;
48897;SDS011;34713;50.038;20.000;2022-11-27T07:27:24;31.60;;;18.15;;
48897;SDS011;34713;50.038;20.000;2022-11-27T07:29:51;30.90;;;18.10;;
48897;SDS011;34713;50.038;20.000;2022-11-27T07:32:16;28.77;;;17.32;;
48897;SDS011;34713;50.038;20.000;2022-11-27T07:34:42;31.45;;;18.70;;
48897;SDS011;34713;50.038;20.000;2022-11-27T07:37:08;32.30;;;18.00;;
48897;SDS011;34713;50.038;20.000;2022-11-27T07:39:33;29.40;;;17.67;;
48897;SDS011;34713;50.038;20.000;2022-11-27T07:41:59;31.95;;;18.23;;
48897;SDS011;34713;50.038;20.000;2022-11-27T07:44:25;28.57;;;17.15;;
48897;SDS011;34713;50.038;20.000;2022-11-27T07:46:51;28.75;;;17.45;;
48897;SDS011;34713;50.038;20.000;2022-11-27T07:49:16;27.87;;;16.40;;
48897;SDS011;34713;50.038;20.000;2022-11-27T07:51:42;26.95;;;16.42;;
48897;SDS011;34713;50.038;20.000;2022-11-27T07:54:08;29.85;;;16.82;;
48897;SDS011;34713;50.038;20.000;2022-11-27T07:56:34;28.87;;;17.48;;
48897;SDS011;34713;50.038;20.000;2022-11-27T07:59:00;29.50;;;16.40;;
48897;SDS011;34713;50.038;20.000;2022-11-27T08:01:26;28.85;;;17.87;;
48897;SDS011;34713;50.038;20.000;2022-11-27T08:03:51;32.63;;;19.50;;
48897;SDS011;34713;50.038;20.000;2022-11-27T08:06:22;30.90;;;17.30;;
48897;SDS011;34713;50.038;20.000;2022-11-27T08:08:50;30.02;;;17.17;;
48897;SDS011;34713;50.038;20.000;2022-11-27T08:11:24;29.45;;;17.75;;
48897;SDS011;34713;50.038;20.000;2022-11-27T08:14:02;31.05;;;16.50;;
48897;SDS011;34713;50.038;20.000;2022-11-27T08:16:27;28.80;;;17.87;;
48897;SDS011;34713;50.038;20.000;2022-11-27T08:18:54;29.23;;;18.02;;
48897;SDS011;34713;50.038;20.000;2022-11-27T08:21:20;32.08;;;17.57;;
48897;SDS011;34713;50.038;20.000;2022-11-27T08:23:46;26.33;;;17.52;;
48897;SDS011;34713;50.038;20.000;2022-11-27T08:26:12;26.57;;;16.15;;
48897;SDS011;34713;50.038;20.000;2022-11-27T08:28:39;25.57;;;15.88;;
48897;SDS011;34713;50.038;20.000;2022-11-27T08:31:06;26.07;;;15.95;;
48897;SDS011;34713;50.038;20.000;2022-11-27T08:33:33;25.45;;;16.10;;
48897;SDS011;34713;50.038;20.000;2022-11-27T08:36:00;29.05;;;17.35;;
48897;SDS011;34713;50.038;20.000;2022-11-27T08:38:26;30.25;;;16.60;;
48897;SDS011;34713;50.038;20.000;2022-11-27T08:40:53;27.95;;;15.95;;
48897;SDS011;34713;50.038;20.000;2022-11-27T08:43:22;25.43;;;16.55;;
48897;SDS011;34713;50.038;20.000;2022-11-27T08:45:48;28.45;;;16.02;;
48897;SDS011;34713;50.038;20.000;2022-11-27T08:48:14;30.68;;;16.65;;
48897;SDS011;34713;50.038;20.000;2022-11-27T08:50:40;26.70;;;16.95;;
48897;SDS011;34713;50.038;20.000;2022-11-27T08:53:06;27.30;;;16.25;;
48897;SDS011;34713;50.038;20.000;2022-11-27T08:55:32;26.12;;;15.53;;
48897;SDS011;34713;50.038;20.000;2022-11-27T08:57:58;27.20;;;17.00;;
48897;SDS011;34713;50.038;20.000;2022-11-27T09:00:23;26.60;;;17.40;;
48897;SDS011;34713;50.038;20.000;2022-11-27T09:02:49;33.30;;;17.35;;
48897;SDS011;34713;50.038;20.000;2022-11-27T09:05:15;28.87;;;17.55;;
48897;SDS011;34713;50.038;20.000;2022-11-27T09:07:41;25.97;;;16.25;;
48897;SDS011;34713;50.038;20.000;2022-11-27T09:10:07;25.95;;;15.68;;
48897;SDS011;34713;50.038;20.000;2022-11-27T09:12:34;29.30;;;17.50;;
48897;SDS011;34713;50.038;20.000;2022-11-27T09:15:00;25.55;;;16.55;;
48897;SDS011;34713;50.038;20.000;2022-11-27T09:17:26;26.85;;;15.63;;
48897;SDS011;34713;50.038;20.000;2022-11-27T09:19:51;26.55;;;15.38;;
48897;SDS011;34713;50.038;20.000;2022-11-27T09:22:17;25.15;;;16.67;;
48897;SDS011;34713;50.038;20.000;2022-11-27T09:24:43;26.48;;;17.00;;
48897;SDS011;34713;50.038;20.000;2022-11-27T09:27:09;29.67;;;17.70;;
48897;SDS011;34713;50.038;20.000;2022-11-27T09:29:35;28.65;;;18.48;;
48897;SDS011;34713;50.038;20.000;2022-11-27T09:32:01;25.15;;;16.87;;
48897;SDS011;34713;50.038;20.000;2022-11-27T09:34:26;25.17;;;15.50;;
48897;SDS011;34713;50.038;20.000;2022-11-27T09:36:52;26.20;;;16.48;;
48897;SDS011;34713;50.038;20.000;2022-11-27T09:39:18;27.75;;;16.90;;
48897;SDS011;34713;50.038;20.000;2022-11-27T09:41:50;24.65;;;15.68;;
48897;SDS011;34713;50.038;20.000;2022-11-27T09:50:04;22.50;;;14.05;;
48897;SDS011;34713;50.038;20.000;2022-11-27T09:52:55;23.18;;;15.32;;
48897;SDS011;34713;50.038;20.000;2022-11-27T09:55:35;25.27;;;15.25;;
48897;SDS011;34713;50.038;20.000;2022-11-27T09:58:14;24.20;;;15.53;;
48897;SDS011;34713;50.038;20.000;2022-11-27T10:00:44;25.23;;;15.48;;
48897;SDS011;34713;50.038;20.000;2022-11-27T10:03:15;23.62;;;15.65;;
48897;SDS011;34713;50.038;20.000;2022-11-27T10:15:14;27.00;;;16.17;;
48897;SDS011;34713;50.038;20.000;2022-11-27T10:20:44;24.72;;;15.70;;
48897;SDS011;34713;50.038;20.000;2022-11-27T10:23:29;22.55;;;14.78;;
48897;SDS011;34713;50.038;20.000;2022-11-27T10:26:14;24.52;;;15.43;;
48897;SDS011;34713;50.038;20.000;2022-11-27T10:31:36;26.82;;;16.67;;
48897;SDS011;34713;50.038;20.000;2022-11-27T10:36:56;26.12;;;15.45;;
48897;SDS011;34713;50.038;20.000;2022-11-27T10:39:29;25.10;;;16.10;;
48897;SDS011;34713;50.038;20.000;2022-11-27T10:42:12;23.38;;;15.35;;
48897;SDS011;34713;50.038;20.000;2022-11-27T10:44:47;23.75;;;14.85;;
48897;SDS011;34713;50.038;20.000;2022-11-27T10:47:28;22.85;;;14.87;;
48897;SDS011;34713;50.038;20.000;2022-11-27T10:49:54;25.08;;;15.50;;
48897;SDS011;34713;50.038;20.000;2022-11-27T10:52:21;23.02;;;15.20;;
48897;SDS011;34713;50.038;20.000;2022-11-27T10:54:55;22.13;;;14.45;;
48897;SDS011;34713;50.038;20.000;2022-11-27T11:02:57;23.15;;;13.32;;
48897;SDS011;34713;50.038;20.000;2022-11-27T11:05:28;22.55;;;14.58;;
48897;SDS011;34713;50.038;20.000;2022-11-27T11:08:13;20.68;;;14.15;;
48897;SDS011;34713;50.038;20.000;2022-11-27T11:13:16;23.05;;;13.40;;
48897;SDS011;34713;50.038;20.000;2022-11-27T11:15:47;21.70;;;14.30;;
48897;SDS011;34713;50.038;20.000;2022-11-27T11:18:21;21.85;;;14.38;;
48897;SDS011;34713;50.038;20.000;2022-11-27T11:20:53;19.05;;;12.70;;
48897;SDS011;34713;50.038;20.000;2022-11-27T11:23:24;17.75;;;12.47;;
48897;SDS011;34713;50.038;20.000;2022-11-27T11:26:03;19.25;;;13.08;;
48897;SDS011;34713;50.038;20.000;2022-11-27T11:28:52;21.40;;;12.95;;
48897;SDS011;34713;50.038;20.000;2022-11-27T11:31:21;20.68;;;13.03;;
48897;SDS011;34713;50.038;20.000;2022-11-27T11:34:04;19.27;;;11.97;;
48897;SDS011;34713;50.038;20.000;2022-11-27T11:39:31;18.80;;;12.40;;
48897;SDS011;34713;50.038;20.000;2022-11-27T11:42:00;16.42;;;11.43;;
48897;SDS011;34713;50.038;20.000;2022-11-27T11:44:37;19.65;;;12.88;;
48897;SDS011;34713;50.038;20.000;2022-11-27T11:47:04;17.62;;;11.50;;
48897;SDS011;34713;50.038;20.000;2022-11-27T11:49:31;16.17;;;10.43;;
48897;SDS011;34713;50.038;20.000;2022-11-27T11:54:59;17.90;;;11.78;;
48897;SDS011;34713;50.038;20.000;2022-11-27T12:11:18;15.95;;;9.78;;
48897;SDS011;34713;50.038;20.000;2022-11-27T12:20:04;14.13;;;9.08;;
48897;SDS011;34713;50.038;20.000;2022-11-27T12:26:00;16.05;;;9.55;;
48897;SDS011;34713;50.038;20.000;2022-11-27T12:34:05;17.10;;;10.75;;
48897;SDS011;34713;50.038;20.000;2022-11-27T12:36:57;16.52;;;10.48;;
48897;SDS011;34713;50.038;20.000;2022-11-27T12:42:34;19.62;;;11.70;;
48897;SDS011;34713;50.038;20.000;2022-11-27T12:56:05;23.55;;;15.55;;
48897;SDS011;34713;50.038;20.000;2022-11-27T12:58:37;20.52;;;14.47;;
48897;SDS011;34713;50.038;20.000;2022-11-27T13:01:14;25.90;;;16.00;;
48897;SDS011;34713;50.038;20.000;2022-11-27T13:06:47;21.20;;;14.18;;
48897;SDS011;34713;50.038;20.000;2022-11-27T13:09:25;23.12;;;15.15;;
48897;SDS011;34713;50.038;20.000;2022-11-27T13:11:53;22.67;;;13.88;;
48897;SDS011;34713;50.038;20.000;2022-11-27T13:14:21;21.00;;;13.98;;
48897;SDS011;34713;50.038;20.000;2022-11-27T13:16:58;23.60;;;14.40;;
48897;SDS011;34713;50.038;20.000;2022-11-27T13:21:58;25.02;;;14.13;;
48897;SDS011;34713;50.038;20.000;2022-11-27T13:24:27;21.05;;;13.68;;
48897;SDS011;34713;50.038;20.000;2022-11-27T13:32:22;25.57;;;14.30;;
48897;SDS011;34713;50.038;20.000;2022-11-27T13:35:02;25.70;;;15.68;;
48897;SDS011;34713;50.038;20.000;2022-11-27T13:37:29;20.48;;;13.08;;
48897;SDS011;34713;50.038;20.000;2022-11-27T13:42:52;22.40;;;13.85;;
48897;SDS011;34713;50.038;20.000;2022-11-27T13:45:21;23.55;;;13.45;;
48897;SDS011;34713;50.038;20.000;2022-11-27T13:47:54;21.70;;;13.43;;
48897;SDS011;34713;50.038;20.000;2022-11-27T13:50:22;24.95;;;14.58;;
48897;SDS011;34713;50.038;20.000;2022-11-27T13:52:50;22.22;;;14.23;;
48897;SDS011;34713;50.038;20.000;2022-11-27T13:55:34;23.92;;;14.23;;
48897;SDS011;34713;50.038;20.000;2022-11-27T13:58:03;22.70;;;14.23;;
48897;SDS011;34713;50.038;20.000;2022-11-27T14:00:37;25.65;;;15.32;;
48897;SDS011;34713;50.038;20.000;2022-11-27T14:03:22;23.90;;;15.65;;
48897;SDS011;34713;50.038;20.000;2022-11-27T14:05:53;29.27;;;16.53;;
48897;SDS011;34713;50.038;20.000;2022-11-27T14:08:30;26.17;;;15.50;;
48897;SDS011;34713;50.038;20.000;2022-11-27T14:13:43;26.35;;;15.68;;
48897;SDS011;34713;50.038;20.000;2022-11-27T14:16:23;26.45;;;15.72;;
48897;SDS011;34713;50.038;20.000;2022-11-27T14:18:59;29.02;;;16.62;;
48897;SDS011;34713;50.038;20.000;2022-11-27T14:24:25;25.92;;;15.95;;
48897;SDS011;34713;50.038;20.000;2022-11-27T14:27:18;27.67;;;15.15;;
48897;SDS011;34713;50.038;20.000;2022-11-27T14:29:42;25.60;;;15.70;;
48897;SDS011;34713;50.038;20.000;2022-11-27T14:32:09;25.05;;;16.40;;
48897;SDS011;34713;50.038;20.000;2022-11-27T14:34:38;28.57;;;15.72;;
48897;SDS011;34713;50.038;20.000;2022-11-27T14:37:04;27.85;;;16.87;;
48897;SDS011;34713;50.038;20.000;2022-11-27T14:39:31;26.02;;;15.93;;
48897;SDS011;34713;50.038;20.000;2022-11-27T14:42:03;25.72;;;15.80;;
48897;SDS011;34713;50.038;20.000;2022-11-27T14:44:32;27.05;;;16.40;;
48897;SDS011;34713;50.038;20.000;2022-11-27T14:47:02;24.95;;;15.63;;
48897;SDS011;34713;50.038;20.000;2022-11-27T14:49:31;24.47;;;15.43;;
48897;SDS011;34713;50.038;20.000;2022-11-27T14:52:03;25.10;;;15.88;;
48897;SDS011;34713;50.038;20.000;2022-11-27T14:54:36;27.58;;;16.50;;
48897;SDS011;34713;50.038;20.000;2022-11-27T14:57:04;24.82;;;15.72;;
48897;SDS011;34713;50.038;20.000;2022-11-27T14:59:33;26.17;;;15.48;;
48897;SDS011;34713;50.038;20.000;2022-11-27T15:04:40;26.35;;;16.15;;
48897;SDS011;34713;50.038;20.000;2022-11-27T15:07:14;25.82;;;15.95;;
48897;SDS011;34713;50.038;20.000;2022-11-27T15:09:46;24.98;;;15.58;;
48897;SDS011;34713;50.038;20.000;2022-11-27T15:12:27;26.75;;;16.15;;
48897;SDS011;34713;50.038;20.000;2022-11-27T15:15:00;26.60;;;16.40;;
48897;SDS011;34713;50.038;20.000;2022-11-27T15:17:33;26.07;;;15.45;;
48897;SDS011;34713;50.038;20.000;2022-11-27T15:20:03;26.60;;;17.32;;
48897;SDS011;34713;50.038;20.000;2022-11-27T15:22:48;24.85;;;15.75;;
48897;SDS011;34713;50.038;20.000;2022-11-27T15:30:53;31.00;;;19.00;;
48897;SDS011;34713;50.038;20.000;2022-11-27T15:33:27;29.55;;;19.42;;
48897;SDS011;34713;50.038;20.000;2022-11-27T15:36:15;28.83;;;19.05;;
48897;SDS011;34713;50.038;20.000;2022-11-27T15:38:44;29.72;;;19.07;;
48897;SDS011;34713;50.038;20.000;2022-11-27T15:41:22;31.77;;;18.82;;
48897;SDS011;34713;50.038;20.000;2022-11-27T15:43:51;30.37;;;18.98;;
48897;SDS011;34713;50.038;20.000;2022-11-27T15:46:24;31.75;;;18.98;;
48897;SDS011;34713;50.038;20.000;2022-11-27T15:48:54;29.60;;;17.37;;
48897;SDS011;34713;50.038;20.000;2022-11-27T15:51:20;29.12;;;16.67;;
48897;SDS011;34713;50.038;20.000;2022-11-27T15:53:47;26.40;;;15.70;;
48897;SDS011;34713;50.038;20.000;2022-11-27T15:56:13;25.82;;;16.87;;
48897;SDS011;34713;50.038;20.000;2022-11-27T15:58:40;24.60;;;16.25;;
48897;SDS011;34713;50.038;20.000;2022-11-27T16:01:07;25.12;;;15.70;;
48897;SDS011;34713;50.038;20.000;2022-11-27T16:03:34;25.12;;;15.70;;
48897;SDS011;34713;50.038;20.000;2022-11-27T16:06:04;26.10;;;15.45;;
48897;SDS011;34713;50.038;20.000;2022-11-27T16:08:31;23.35;;;14.87;;
48897;SDS011;34713;50.038;20.000;2022-11-27T16:11:00;25.43;;;14.50;;
48897;SDS011;34713;50.038;20.000;2022-11-27T16:13:30;24.12;;;14.80;;
48897;SDS011;34713;50.038;20.000;2022-11-27T16:16:05;21.75;;;14.33;;
48897;SDS011;34713;50.038;20.000;2022-11-27T16:18:33;26.90;;;16.17;;
48897;SDS011;34713;50.038;20.000;2022-11-27T16:21:07;28.47;;;16.90;;
48897;SDS011;34713;50.038;20.000;2022-11-27T16:23:32;31.17;;;19.87;;
48897;SDS011;34713;50.038;20.000;2022-11-27T16:25:58;28.60;;;17.67;;
48897;SDS011;34713;50.038;20.000;2022-11-27T16:28:25;28.00;;;19.12;;
48897;SDS011;34713;50.038;20.000;2022-11-27T16:30:53;28.90;;;19.05;;
48897;SDS011;34713;50.038;20.000;2022-11-27T16:33:24;26.50;;;17.82;;
48897;SDS011;34713;50.038;20.000;2022-11-27T16:35:52;28.35;;;19.15;;
48897;SDS011;34713;50.038;20.000;2022-11-27T16:38:17;27.90;;;18.60;;
48897;SDS011;34713;50.038;20.000;2022-11-27T16:40:49;32.25;;;20.68;;
48897;SDS011;34713;50.038;20.000;2022-11-27T16:43:14;29.12;;;19.30;;